Terminal Aerodrome Forecast
Issued by NWS Billings, MT

Home | Current Version | Previous Version | Text Only | Print | Product List | Glossary On
Versions: 1 2 3 4 5 6 7 8 9 10 11 12
000
FTUS45 KBYZ 280532
TAFSHR
TAF
KSHR 280532Z 2806/2906 VRB06KT P6SM SKC
     FM281800 12006KT P6SM SKC
     FM290000 17008KT P6SM SKC=

USA.gov is the U.S. government's official web portal to all federal, state and local government web resources and services.